Time;durP1;ratioP1;P1;durP2;ratioP2;P2;SDS_P1;SDS_P2;PMS_P1;PMS_P2;Temp;Humidity;BMP_temperature;BMP_pressure;BME280_temperature;BME280_humidity;BME280_pressure;Samples;Min_cycle;Max_cycle;Signal;HPM_P1;HPM_P2
2021/08/31 00:01:22;;;;;;;25.03;13.23;;;17.50;82.10;;;;;;5057757;28;20197;-89
2021/08/31 00:03:47;;;;;;;26.47;13.80;;;17.50;82.00;;;;;;5053106;28;20197;-89
2021/08/31 00:06:13;;;;;;;22.40;12.23;;;17.50;82.00;;;;;;5053871;28;20632;-89
2021/08/31 00:08:39;;;;;;;21.53;12.80;;;17.40;82.00;;;;;;5054200;28;20260;-89
2021/08/31 00:11:05;;;;;;;23.50;12.57;;;17.50;82.20;;;;;;5053191;28;20272;-90
2021/08/31 00:13:30;;;;;;;20.33;11.77;;;17.50;82.20;;;;;;5053962;28;20208;-91
2021/08/31 00:16:00;;;;;;;19.23;11.50;;;17.60;82.00;;;;;;5057448;28;20191;-91
2021/08/31 00:18:26;;;;;;;20.20;12.80;;;17.70;81.70;;;;;;5057469;28;20182;-90
2021/08/31 00:20:52;;;;;;;22.93;13.60;;;17.60;82.40;;;;;;5059583;28;20687;-91
2021/08/31 00:23:17;;;;;;;34.10;13.47;;;17.60;81.70;;;;;;5056643;28;20648;-91
2021/08/31 00:25:43;;;;;;;23.20;12.77;;;17.60;81.70;;;;;;5057475;28;20185;-91
2021/08/31 00:28:09;;;;;;;20.53;12.03;;;17.60;81.70;;;;;;5057525;28;20258;-92
2021/08/31 00:30:34;;;;;;;22.97;12.60;;;17.50;81.90;;;;;;5077193;28;20180;-91
2021/08/31 00:33:00;;;;;;;21.10;12.90;;;17.50;82.10;;;;;;5079732;28;20201;-91
2021/08/31 00:35:26;;;;;;;20.30;12.23;;;17.70;81.80;;;;;;5062085;28;20537;-91
2021/08/31 00:37:52;;;;;;;21.57;11.63;;;17.80;81.60;;;;;;5056571;28;20219;-91
2021/08/31 00:40:17;;;;;;;22.53;12.57;;;17.80;81.40;;;;;;5056651;28;20288;-91
2021/08/31 00:42:43;;;;;;;23.00;12.40;;;17.80;81.10;;;;;;5055973;28;20520;-91
2021/08/31 00:45:09;;;;;;;24.17;12.77;;;17.70;81.10;;;;;;5056894;28;20227;-90
2021/08/31 00:47:36;;;;;;;26.45;14.57;;;17.90;81.10;;;;;;5057300;28;20177;-90
2021/08/31 00:50:03;;;;;;;21.63;13.30;;;17.90;81.00;;;;;;5057162;28;20173;-90
2021/08/31 00:52:29;;;;;;;23.40;13.65;;;17.80;80.90;;;;;;5056794;28;20215;-90
2021/08/31 00:54:54;;;;;;;24.40;12.87;;;17.70;81.10;;;;;;5068683;28;20176;-88
2021/08/31 00:57:21;;;;;;;18.13;13.47;;;17.70;81.20;;;;;;5077315;28;20188;-89
2021/08/31 00:59:48;;;;;;;20.00;12.80;;;17.60;81.50;;;;;;5072843;28;20434;-89
2021/08/31 01:02:14;;;;;;;29.50;15.02;;;17.70;81.60;;;;;;5060350;28;20535;-89
2021/08/31 01:04:40;;;;;;;25.17;14.50;;;17.80;81.50;;;;;;5056910;28;20176;-89
2021/08/31 01:07:06;;;;;;;20.63;13.82;;;17.70;81.30;;;;;;5056862;28;20416;-89
2021/08/31 01:09:32;;;;;;;24.00;13.30;;;17.70;81.50;;;;;;5057027;28;20268;-89
2021/08/31 01:11:58;;;;;;;20.80;13.27;;;17.70;81.50;;;;;;5056693;28;20188;-89
2021/08/31 01:14:25;;;;;;;25.80;14.07;;;17.70;81.60;;;;;;5061568;28;20197;-89
2021/08/31 01:16:51;;;;;;;23.52;14.25;;;17.70;81.70;;;;;;5057311;28;20423;-90
2021/08/31 01:19:28;;;;;;;23.30;14.27;;;17.70;81.80;;;;;;5074498;28;20199;-92
2021/08/31 01:21:55;;;;;;;27.63;14.80;;;17.70;81.80;;;;;;5079073;28;20467;-87
2021/08/31 01:24:21;;;;;;;23.52;12.98;;;17.70;81.80;;;;;;5074346;28;20185;-89
2021/08/31 01:26:49;;;;;;;23.33;13.97;;;17.70;81.80;;;;;;5058554;28;20190;-85
2021/08/31 01:29:14;;;;;;;26.05;14.07;;;17.70;81.60;;;;;;5059242;28;20173;-86
2021/08/31 01:31:40;;;;;;;29.30;15.07;;;17.80;81.60;;;;;;5059166;28;20159;-87
2021/08/31 01:34:06;;;;;;;28.67;14.27;;;17.70;81.60;;;;;;5059025;28;20186;-90
2021/08/31 01:36:32;;;;;;;24.60;14.07;;;17.60;81.90;;;;;;5059164;28;20181;-87
2021/08/31 01:38:58;;;;;;;25.47;15.00;;;17.70;82.00;;;;;;5059250;28;20170;-90
2021/08/31 01:41:25;;;;;;;27.53;16.57;;;17.70;82.00;;;;;;5058721;28;20292;-87
2021/08/31 01:43:52;;;;;;;26.83;14.65;;;17.80;81.70;;;;;;5063483;28;20475;-89
2021/08/31 01:46:18;;;;;;;26.45;14.85;;;18.00;81.40;;;;;;5078785;28;20203;-86
2021/08/31 01:48:44;;;;;;;28.27;15.48;;;17.90;81.30;;;;;;5078821;28;20199;-89
2021/08/31 01:51:10;;;;;;;20.10;14.00;;;17.80;81.20;;;;;;5078622;28;20181;-89
2021/08/31 01:53:37;;;;;;;27.23;15.45;;;17.70;81.40;;;;;;5077597;28;20312;-89
2021/08/31 01:56:05;;;;;;;24.30;16.23;;;17.70;81.60;;;;;;5059076;28;20779;-89
2021/08/31 01:58:31;;;;;;;28.27;17.77;;;17.80;81.40;;;;;;5055384;28;20181;-89
2021/08/31 02:00:57;;;;;;;46.13;15.93;;;17.70;81.50;;;;;;5055662;28;20189;-89
2021/08/31 02:03:22;;;;;;;26.73;16.37;;;17.70;81.70;;;;;;5055636;28;20201;-89
2021/08/31 02:05:48;;;;;;;27.80;15.40;;;17.70;81.90;;;;;;5058661;28;20181;-89
2021/08/31 02:08:14;;;;;;;30.27;16.97;;;17.60;82.00;;;;;;5054847;28;20177;-90
2021/08/31 02:10:41;;;;;;;27.07;16.87;;;17.60;82.00;;;;;;5055112;28;20578;-90
2021/08/31 02:13:07;;;;;;;31.38;17.05;;;17.70;82.20;;;;;;5035158;28;20858;-90
2021/08/31 02:15:43;;;;;;;36.23;17.93;;;17.70;82.00;;;;;;5035930;28;20274;-90
2021/08/31 02:18:09;;;;;;;30.90;17.08;;;17.60;81.90;;;;;;5035446;28;20553;-91
2021/08/31 02:20:35;;;;;;;27.73;16.27;;;17.60;82.10;;;;;;5035019;28;20182;-91
2021/08/31 02:23:02;;;;;;;25.88;16.52;;;17.60;82.30;;;;;;5035087;28;20468;-91
2021/08/31 02:25:28;;;;;;;30.55;16.48;;;17.70;82.20;;;;;;5048442;28;20181;-90
2021/08/31 02:27:54;;;;;;;25.20;15.80;;;17.60;81.80;;;;;;5054840;28;20180;-89
2021/08/31 02:30:20;;;;;;;25.23;16.30;;;17.50;81.90;;;;;;5054586;28;20264;-89
2021/08/31 02:32:49;;;;;;;28.48;15.77;;;17.60;81.90;;;;;;5053786;28;20292;-89
2021/08/31 02:35:16;;;;;;;26.25;16.27;;;17.60;81.60;;;;;;5054310;28;20189;-89
2021/08/31 02:37:42;;;;;;;27.63;16.52;;;17.60;81.50;;;;;;5054200;28;20181;-89
2021/08/31 02:40:09;;;;;;;27.47;15.33;;;17.70;81.60;;;;;;5055507;28;20295;-89
2021/08/31 02:42:35;;;;;;;21.80;15.23;;;17.80;81.30;;;;;;5054223;28;20251;-89
2021/08/31 02:45:01;;;;;;;26.85;17.63;;;17.70;81.20;;;;;;5054858;28;20173;-89
2021/08/31 02:47:27;;;;;;;25.93;17.17;;;17.70;81.20;;;;;;5055134;28;20188;-90
2021/08/31 02:49:53;;;;;;;26.77;18.47;;;17.60;81.30;;;;;;5054373;28;20419;-89
2021/08/31 02:52:19;;;;;;;21.07;15.80;;;17.60;81.40;;;;;;5055226;28;20444;-90
2021/08/31 02:54:44;;;;;;;24.65;15.85;;;17.60;81.50;;;;;;5054958;28;20238;-89
2021/08/31 02:57:10;;;;;;;25.97;16.43;;;17.60;81.50;;;;;;5056046;28;20197;-89
2021/08/31 02:59:36;;;;;;;22.43;15.80;;;17.80;81.70;;;;;;5058393;28;20177;-89
2021/08/31 03:02:05;;;;;;;25.07;16.00;;;17.80;81.30;;;;;;5058304;28;20216;-89
2021/08/31 03:04:41;;;;;;;29.85;18.88;;;17.80;81.80;;;;;;5059406;28;20246;-89
2021/08/31 03:07:10;;;;;;;29.67;17.55;;;17.80;81.00;;;;;;5060277;28;20177;-89
2021/08/31 03:09:36;;;;;;;28.38;15.68;;;17.90;80.90;;;;;;5060565;28;20622;-89
2021/08/31 03:12:03;;;;;;;26.45;15.90;;;18.00;80.80;;;;;;5065159;28;20197;-90
2021/08/31 03:14:29;;;;;;;22.25;15.35;;;17.90;80.50;;;;;;5069271;28;20174;-89
2021/08/31 03:16:56;;;;;;;22.52;15.27;;;17.90;80.50;;;;;;5068543;28;20181;-90
2021/08/31 03:19:25;;;;;;;22.85;14.65;;;17.90;80.50;;;;;;5069526;28;20201;-90
2021/08/31 03:21:53;;;;;;;26.27;16.05;;;17.90;80.60;;;;;;5067468;28;20258;-90
2021/08/31 03:24:19;;;;;;;24.20;15.73;;;17.90;80.40;;;;;;5068362;28;20193;-89
2021/08/31 03:26:44;;;;;;;23.55;15.30;;;17.90;80.60;;;;;;5055978;28;20268;-89
2021/08/31 03:29:10;;;;;;;21.33;15.30;;;18.00;80.50;;;;;;5055662;28;20280;-90
2021/08/31 03:31:36;;;;;;;33.37;17.67;;;18.00;80.30;;;;;;5053525;28;20185;-89
2021/08/31 03:34:02;;;;;;;26.50;16.23;;;18.00;80.30;;;;;;5053410;28;20204;-90
2021/08/31 03:36:59;;;;;;;23.77;15.80;;;17.90;80.30;;;;;;5053686;28;20173;-90
2021/08/31 03:39:25;;;;;;;22.23;15.10;;;17.80;80.50;;;;;;5034740;28;20224;-89
2021/08/31 03:41:50;;;;;;;21.20;15.30;;;17.80;80.80;;;;;;5049429;28;20213;-90
2021/08/31 03:44:16;;;;;;;34.87;17.57;;;17.80;81.00;;;;;;5049959;28;20273;-90
2021/08/31 03:46:42;;;;;;;27.47;15.60;;;17.70;81.10;;;;;;5050617;28;20174;-90
2021/08/31 03:49:08;;;;;;;29.43;16.80;;;17.70;82.00;;;;;;5048088;28;20173;-90
2021/08/31 03:51:33;;;;;;;27.47;17.10;;;17.80;81.20;;;;;;5053121;28;20568;-90
2021/08/31 03:53:59;;;;;;;22.63;16.53;;;17.80;81.00;;;;;;5053211;28;20211;-91
2021/08/31 03:56:25;;;;;;;24.90;17.90;;;18.00;80.90;;;;;;5053316;28;20276;-91
2021/08/31 03:58:51;;;;;;;24.17;16.93;;;17.90;80.70;;;;;;5053282;28;20579;-90
2021/08/31 04:01:16;;;;;;;23.53;15.03;;;17.80;80.70;;;;;;5052926;28;20691;-90
2021/08/31 04:03:42;;;;;;;24.90;16.53;;;17.70;80.70;;;;;;5058988;28;20205;-89
2021/08/31 04:06:08;;;;;;;23.90;16.50;;;17.70;80.80;;;;;;5069772;28;20238;-89
2021/08/31 04:08:33;;;;;;;20.40;14.40;;;17.60;81.00;;;;;;5063677;28;20503;-90
2021/08/31 04:10:59;;;;;;;29.13;15.83;;;17.70;81.10;;;;;;5075073;28;20195;-89
2021/08/31 04:13:25;;;;;;;19.37;14.87;;;17.70;80.90;;;;;;5075767;28;20228;-91
2021/08/31 04:15:51;;;;;;;24.80;15.17;;;17.70;80.70;;;;;;5057642;28;20629;-91
2021/08/31 04:18:16;;;;;;;24.10;15.60;;;17.80;80.70;;;;;;5053392;28;20655;-90
2021/08/31 04:20:42;;;;;;;29.30;17.40;;;17.90;80.50;;;;;;5052899;28;20260;-90
2021/08/31 04:23:08;;;;;;;25.00;16.20;;;17.80;80.20;;;;;;5053049;28;20626;-90
2021/08/31 04:25:34;;;;;;;23.10;15.23;;;17.80;80.30;;;;;;5055007;28;20178;-90
2021/08/31 04:28:00;;;;;;;24.17;15.38;;;17.90;80.30;;;;;;5055868;28;20177;-90
2021/08/31 04:30:26;;;;;;;29.10;17.77;;;17.90;80.20;;;;;;5058669;28;20237;-90
2021/08/31 04:32:52;;;;;;;23.57;15.47;;;17.80;80.20;;;;;;5060120;28;20198;-90
2021/08/31 04:35:18;;;;;;;23.60;14.83;;;17.70;80.40;;;;;;5071453;28;20408;-89
2021/08/31 04:37:43;;;;;;;22.93;16.37;;;17.70;80.80;;;;;;5075776;28;20184;-90
2021/08/31 04:40:10;;;;;;;20.30;15.10;;;17.80;80.70;;;;;;5074675;28;20438;-90
2021/08/31 04:42:35;;;;;;;25.63;15.85;;;17.90;80.60;;;;;;5067075;28;20232;-90
2021/08/31 04:45:01;;;;;;;30.10;17.00;;;17.90;80.50;;;;;;5064710;28;20181;-90
2021/08/31 04:47:27;;;;;;;26.30;16.53;;;17.80;80.40;;;;;;5065086;28;20434;-90
2021/08/31 04:49:53;;;;;;;21.67;15.47;;;17.80;80.40;;;;;;5065850;28;20420;-89
2021/08/31 04:52:19;;;;;;;26.07;16.70;;;17.80;80.40;;;;;;5065713;28;20343;-89
2021/08/31 04:54:44;;;;;;;23.83;15.30;;;17.80;80.50;;;;;;5064018;28;20200;-90
2021/08/31 04:57:10;;;;;;;26.30;15.90;;;17.80;80.40;;;;;;5060679;28;20423;-90
2021/08/31 04:59:36;;;;;;;27.93;18.27;;;17.80;80.50;;;;;;5060308;28;20177;-90
2021/08/31 05:02:05;;;;;;;30.63;19.53;;;17.80;80.20;;;;;;5062414;28;20201;-89
2021/08/31 05:04:32;;;;;;;25.45;15.40;;;17.70;79.70;;;;;;5065254;28;20907;-90
2021/08/31 05:06:57;;;;;;;31.23;16.63;;;17.70;79.60;;;;;;5065663;28;20235;-90
2021/08/31 05:09:23;;;;;;;24.30;15.50;;;17.70;79.40;;;;;;5064486;28;20207;-90
2021/08/31 05:11:49;;;;;;;23.33;16.60;;;17.70;79.50;;;;;;5064570;28;20431;-91
2021/08/31 05:14:15;;;;;;;27.33;15.47;;;17.80;79.40;;;;;;5065434;28;20183;-90
2021/08/31 05:16:41;;;;;;;31.80;17.63;;;17.70;79.50;;;;;;5064660;28;20424;-89
2021/08/31 05:19:06;;;;;;;27.90;16.10;;;17.70;79.70;;;;;;5065852;28;20207;-90
2021/08/31 05:21:33;;;;;;;27.30;17.50;;;17.60;80.00;;;;;;5066681;28;21013;-89
2021/08/31 05:23:59;;;;;;;27.10;17.92;;;17.60;80.30;;;;;;5065711;28;20247;-89
2021/08/31 05:26:25;;;;;;;33.03;17.07;;;17.60;80.40;;;;;;5067277;28;20181;-90
2021/08/31 05:28:51;;;;;;;26.77;16.33;;;17.60;80.40;;;;;;5064709;28;20451;-90
2021/08/31 05:31:16;;;;;;;29.30;17.03;;;17.70;80.60;;;;;;5064477;28;20617;-88
2021/08/31 05:33:43;;;;;;;25.73;17.40;;;17.70;80.50;;;;;;5064770;28;20250;-90
2021/08/31 05:36:09;;;;;;;23.90;15.95;;;17.70;80.90;;;;;;5063908;28;20427;-91
2021/08/31 05:38:35;;;;;;;29.47;16.63;;;17.60;80.90;;;;;;5065020;28;20252;-90
2021/08/31 05:41:01;;;;;;;24.77;15.17;;;17.60;81.10;;;;;;5059979;28;20509;-91
2021/08/31 05:43:28;;;;;;;39.35;17.55;;;17.70;81.20;;;;;;5063159;28;20498;-91
2021/08/31 05:45:55;;;;;;;26.10;15.75;;;17.50;81.20;;;;;;5061450;28;20191;-93
2021/08/31 05:48:21;;;;;;;26.77;16.30;;;17.60;81.30;;;;;;5043229;28;20181;-92
2021/08/31 05:50:47;;;;;;;28.40;16.93;;;17.60;81.40;;;;;;5057262;28;20509;-92
2021/08/31 05:53:13;;;;;;;30.43;16.80;;;17.70;81.30;;;;;;5054904;28;20198;-90
2021/08/31 05:55:39;;;;;;;25.60;17.80;;;17.70;81.20;;;;;;5040988;28;20475;-91
2021/08/31 05:58:05;;;;;;;29.00;17.10;;;17.70;81.10;;;;;;5050825;28;20197;-91
2021/08/31 06:00:30;;;;;;;21.17;14.60;;;17.70;81.00;;;;;;5061674;28;20706;-90
2021/08/31 06:02:56;;;;;;;33.23;17.47;;;17.70;81.10;;;;;;5052419;28;20531;-87
2021/08/31 06:05:22;;;;;;;28.33;16.40;;;17.60;81.20;;;;;;5047073;28;20269;-86
2021/08/31 06:07:49;;;;;;;37.88;17.30;;;17.50;81.70;;;;;;5042905;28;20806;-87
2021/08/31 06:10:17;;;;;;;31.65;18.10;;;17.50;82.00;;;;;;5039661;28;20609;-87
2021/08/31 06:12:43;;;;;;;28.15;15.10;;;17.50;82.00;;;;;;5057786;28;20271;-87
2021/08/31 06:15:09;;;;;;;28.37;16.50;;;17.60;82.10;;;;;;5061000;28;20193;-87
2021/08/31 06:17:37;;;;;;;25.00;15.95;;;17.60;82.00;;;;;;5059371;28;20174;-88
2021/08/31 06:20:05;;;;;;;31.23;16.15;;;17.50;82.00;;;;;;5061202;28;20231;-86
2021/08/31 06:22:31;;;;;;;26.48;17.20;;;17.50;82.00;;;;;;5058588;28;20197;-86
2021/08/31 06:24:56;;;;;;;32.50;16.47;;;17.50;81.90;;;;;;5059687;28;20276;-86
2021/08/31 06:27:22;;;;;;;29.67;15.67;;;17.60;81.80;;;;;;5060005;28;20189;-86
2021/08/31 06:29:48;;;;;;;27.50;17.03;;;17.70;81.80;;;;;;5059104;28;20177;-87
2021/08/31 06:32:15;;;;;;;31.33;14.97;;;17.80;81.40;;;;;;5059084;28;20570;-89
2021/08/31 06:34:41;;;;;;;35.55;15.70;;;17.80;81.00;;;;;;5057784;28;20189;-88
2021/08/31 06:37:07;;;;;;;31.73;15.93;;;17.80;80.70;;;;;;5056231;28;20181;-87
2021/08/31 06:39:32;;;;;;;30.37;16.40;;;17.90;80.70;;;;;;5056047;28;20226;-86
2021/08/31 06:41:58;;;;;;;24.07;13.97;;;17.90;80.50;;;;;;5059150;28;20462;-86
2021/08/31 06:44:24;;;;;;;26.37;16.50;;;18.00;80.40;;;;;;5056493;28;20415;-87
2021/08/31 06:46:50;;;;;;;26.90;16.67;;;18.10;79.90;;;;;;5056288;28;20412;-87
2021/08/31 06:49:16;;;;;;;31.60;14.77;;;18.20;79.50;;;;;;5066057;28;20145;-87
2021/08/31 06:51:42;;;;;;;28.93;13.50;;;18.30;79.30;;;;;;5074029;28;20265;-87
2021/08/31 06:54:08;;;;;;;22.95;14.05;;;18.40;78.80;;;;;;5070100;28;20450;-88
2021/08/31 06:56:34;;;;;;;20.73;13.85;;;18.50;78.20;;;;;;5065477;28;20311;-88
2021/08/31 06:59:00;;;;;;;28.53;14.67;;;18.40;77.80;;;;;;5073903;28;20653;-89
2021/08/31 07:01:26;;;;;;;24.20;13.27;;;18.50;77.80;;;;;;5074839;28;20203;-88
2021/08/31 07:03:52;;;;;;;22.95;14.23;;;18.60;77.60;;;;;;5074705;28;20518;-89
2021/08/31 07:06:18;;;;;;;24.20;13.67;;;18.70;77.60;;;;;;5076382;28;20181;-88
2021/08/31 07:08:43;;;;;;;19.47;12.20;;;18.80;77.20;;;;;;5074267;28;20192;-87
2021/08/31 07:11:09;;;;;;;20.50;12.60;;;19.00;77.10;;;;;;5070651;28;20643;-87
2021/08/31 07:13:35;;;;;;;24.43;13.40;;;19.00;76.30;;;;;;5058501;28;20197;-88
2021/08/31 07:16:02;;;;;;;18.70;13.03;;;19.00;75.70;;;;;;5056105;28;20455;-87
2021/08/31 07:18:28;;;;;;;22.50;12.82;;;19.30;75.40;;;;;;5068851;28;20396;-86
2021/08/31 07:20:53;;;;;;;24.30;11.43;;;19.40;74.80;;;;;;5073366;28;20211;-87
2021/08/31 07:23:19;;;;;;;18.37;11.13;;;19.50;74.70;;;;;;5069624;28;20229;-89
2021/08/31 07:25:48;;;;;;;18.70;9.97;;;19.60;73.50;;;;;;5055876;28;20700;-87
2021/08/31 07:28:14;;;;;;;19.23;11.30;;;19.70;73.10;;;;;;5054991;28;20899;-88
2021/08/31 07:30:40;;;;;;;16.40;9.90;;;19.70;72.60;;;;;;5055946;28;20529;-88
2021/08/31 07:33:06;;;;;;;22.63;9.97;;;19.70;72.50;;;;;;5054054;28;20205;-88
2021/08/31 07:35:33;;;;;;;18.70;10.50;;;19.80;72.20;;;;;;5054566;28;20212;-88
2021/08/31 07:37:59;;;;;;;17.30;10.02;;;19.80;72.10;;;;;;5055517;28;20189;-89
2021/08/31 07:40:25;;;;;;;14.40;9.27;;;19.90;71.80;;;;;;5056051;28;20203;-89
2021/08/31 07:42:52;;;;;;;22.33;10.40;;;19.90;71.70;;;;;;5063862;28;20208;-88
2021/08/31 07:45:20;;;;;;;18.92;10.18;;;20.00;71.40;;;;;;5057784;28;20566;-90
2021/08/31 07:47:46;;;;;;;17.58;9.90;;;20.10;71.10;;;;;;5075498;28;20189;-90
2021/08/31 07:50:12;;;;;;;17.48;9.07;;;20.20;70.90;;;;;;5076984;28;20169;-88
2021/08/31 07:52:38;;;;;;;21.17;10.20;;;20.20;70.80;;;;;;5060354;28;20201;-88
2021/08/31 07:55:06;;;;;;;15.87;8.70;;;20.20;70.70;;;;;;5077372;28;20173;-87
2021/08/31 07:57:35;;;;;;;13.02;9.10;;;20.00;70.70;;;;;;5077829;28;20183;-90
2021/08/31 08:00:04;;;;;;;15.77;9.38;;;19.80;70.50;;;;;;5077060;28;20189;-88
2021/08/31 08:02:33;;;;;;;14.50;8.43;;;19.90;70.80;;;;;;5076813;28;20243;-86
2021/08/31 08:04:59;;;;;;;10.13;7.93;;;19.90;70.00;;;;;;5077183;28;20169;-87
2021/08/31 08:07:27;;;;;;;27.80;9.00;;;19.90;70.10;;;;;;5077252;28;20169;-89
2021/08/31 08:09:54;;;;;;;15.18;8.45;;;20.00;69.50;;;;;;5077865;28;21075;-88
2021/08/31 08:12:21;;;;;;;12.88;8.77;;;19.70;69.40;;;;;;5076933;28;20185;-87
2021/08/31 08:14:50;;;;;;;14.85;8.55;;;19.70;69.90;;;;;;5077023;28;20197;-87
2021/08/31 08:17:20;;;;;;;13.50;8.73;;;19.70;69.80;;;;;;5077137;28;20233;-88
2021/08/31 08:19:46;;;;;;;12.75;9.68;;;19.70;69.20;;;;;;5076381;28;20181;-88
2021/08/31 08:22:12;;;;;;;13.90;8.80;;;19.70;69.70;;;;;;5075106;28;20236;-87
2021/08/31 08:24:38;;;;;;;16.50;7.03;;;19.70;69.80;;;;;;5076932;28;20169;-87
2021/08/31 08:27:04;;;;;;;13.40;6.85;;;19.70;69.80;;;;;;5062846;28;20600;-88
2021/08/31 08:29:30;;;;;;;12.85;8.55;;;19.70;69.50;;;;;;5054969;28;20177;-88
2021/08/31 08:31:56;;;;;;;11.67;8.53;;;19.50;69.50;;;;;;5057060;28;20260;-88
2021/08/31 08:34:24;;;;;;;15.50;8.83;;;19.50;69.50;;;;;;5057327;28;20520;-88
2021/08/31 08:36:50;;;;;;;12.10;8.05;;;19.40;69.80;;;;;;5059541;28;20185;-88
2021/08/31 08:39:16;;;;;;;16.63;8.00;;;19.30;69.90;;;;;;5060332;28;20182;-87
2021/08/31 08:41:42;;;;;;;13.97;7.90;;;19.50;70.20;;;;;;5061762;28;20216;-88
2021/08/31 08:44:08;;;;;;;13.73;9.50;;;19.60;70.20;;;;;;5061837;28;20197;-87
2021/08/31 08:46:35;;;;;;;12.45;8.63;;;19.70;69.40;;;;;;5060763;28;20827;-87
2021/08/31 08:49:00;;;;;;;14.50;8.23;;;19.70;69.00;;;;;;5060484;28;20199;-87
2021/08/31 08:51:29;;;;;;;13.87;9.23;;;19.70;68.90;;;;;;5060744;28;20181;-87
2021/08/31 08:53:55;;;;;;;13.90;8.90;;;19.80;68.80;;;;;;5069115;28;20471;-88
2021/08/31 08:56:21;;;;;;;16.63;8.43;;;20.00;68.40;;;;;;5074160;28;20200;-87
2021/08/31 08:58:48;;;;;;;13.40;8.20;;;20.20;68.20;;;;;;5073663;28;20192;-88
2021/08/31 09:01:14;;;;;;;18.25;8.85;;;20.40;67.30;;;;;;5064646;28;20511;-87
2021/08/31 09:03:45;;;;;;;10.60;7.40;;;20.50;66.50;;;;;;5062333;28;20594;-87
2021/08/31 09:06:14;;;;;;;10.63;7.40;;;20.50;66.40;;;;;;5063647;28;20173;-88
2021/08/31 09:08:53;;;;;;;10.07;7.50;;;20.70;65.90;;;;;;5073833;28;20668;-87
2021/08/31 09:11:29;;;;;;;10.50;6.53;;;20.80;65.80;;;;;;5078061;28;20485;-88
2021/08/31 09:14:16;;;;;;;10.53;6.20;;;21.00;64.40;;;;;;5071471;28;20208;-88
2021/08/31 09:16:43;;;;;;;8.77;6.20;;;21.00;64.20;;;;;;5062058;28;20411;-88
2021/08/31 09:19:09;;;;;;;12.57;6.63;;;21.20;63.40;;;;;;5060003;28;20565;-88
2021/08/31 09:21:35;;;;;;;13.50;6.40;;;21.20;63.40;;;;;;5060384;28;20248;-89
2021/08/31 09:24:04;;;;;;;11.50;7.20;;;21.30;62.70;;;;;;5061193;28;20194;-88
2021/08/31 09:26:38;;;;;;;9.30;6.40;;;21.40;62.30;;;;;;5061221;28;20416;-89
2021/08/31 09:29:20;;;;;;;14.52;6.53;;;21.30;61.90;;;;;;5062750;28;20403;-88
2021/08/31 09:31:56;;;;;;;15.07;7.00;;;21.30;62.10;;;;;;5061200;28;20177;-88
2021/08/31 09:34:33;;;;;;;8.73;6.30;;;21.20;62.10;;;;;;5061211;28;20426;-88
2021/08/31 09:37:31;;;;;;;11.57;6.20;;;21.00;62.30;;;;;;5060639;28;20434;-88
2021/08/31 09:40:16;;;;;;;10.15;6.68;;;20.90;63.10;;;;;;5058165;28;20199;-88
2021/08/31 09:42:58;;;;;;;10.07;6.63;;;21.20;63.00;;;;;;5060074;28;20208;-89
2021/08/31 09:45:27;;;;;;;11.60;6.53;;;21.30;62.30;;;;;;5071257;28;20181;-88
2021/08/31 09:47:54;;;;;;;12.40;5.40;;;21.50;61.50;;;;;;5072202;28;20423;-88
2021/08/31 09:50:29;;;;;;;10.67;6.00;;;21.50;62.00;;;;;;5071738;28;20412;-88
2021/08/31 09:53:03;;;;;;;10.17;6.10;;;21.60;61.00;;;;;;5060640;28;20561;-88
2021/08/31 09:55:28;;;;;;;11.90;6.90;;;21.80;60.70;;;;;;5059940;28;20415;-88
2021/08/31 09:58:20;;;;;;;9.47;5.87;;;21.80;60.00;;;;;;5071169;28;20436;-84
2021/08/31 10:00:47;;;;;;;8.93;5.53;;;22.20;59.20;;;;;;5070128;28;20411;-88
2021/08/31 10:03:14;;;;;;;15.70;8.20;;;22.20;57.80;;;;;;5059291;28;20463;-88
2021/08/31 10:05:42;;;;;;;13.50;5.80;;;22.10;57.70;;;;;;5062592;28;20439;-88
2021/08/31 10:08:09;;;;;;;8.10;5.37;;;22.20;58.00;;;;;;5061346;28;20514;-88
2021/08/31 10:10:36;;;;;;;12.03;6.60;;;21.80;58.70;;;;;;5059844;28;20408;-87
2021/08/31 10:13:07;;;;;;;11.10;7.00;;;21.60;58.90;;;;;;5039223;28;20955;-87
2021/08/31 10:15:36;;;;;;;8.83;6.03;;;21.60;60.50;;;;;;5040043;28;20443;-88
2021/08/31 10:18:02;;;;;;;9.67;6.17;;;21.70;59.60;;;;;;5040322;28;20417;-87
2021/08/31 10:20:30;;;;;;;13.50;6.93;;;21.60;59.70;;;;;;5038809;28;20417;-87
2021/08/31 10:22:58;;;;;;;9.80;6.23;;;21.50;60.00;;;;;;5040139;28;20517;-87
2021/08/31 10:25:28;;;;;;;8.07;4.87;;;21.50;60.10;;;;;;5047459;28;20415;-88
2021/08/31 10:27:55;;;;;;;17.97;6.17;;;21.60;58.90;;;;;;5059363;28;20415;-87
2021/08/31 10:30:21;;;;;;;13.07;5.68;;;21.80;58.20;;;;;;5058405;28;20447;-88
2021/08/31 10:32:49;;;;;;;11.23;6.40;;;21.90;58.40;;;;;;5057180;28;20550;-88
2021/08/31 10:35:36;;;;;;;12.77;6.20;;;21.90;58.30;;;;;;5060788;28;20173;-87
2021/08/31 10:38:07;;;;;;;11.95;6.47;;;21.80;58.00;;;;;;5065564;28;20415;-87
2021/08/31 10:40:40;;;;;;;13.52;4.90;;;21.80;58.20;;;;;;5061763;28;20203;-88
2021/08/31 10:43:11;;;;;;;13.82;5.82;;;21.90;58.10;;;;;;5064686;28;20220;-89
2021/08/31 10:45:39;;;;;;;8.40;4.72;;;21.80;57.90;;;;;;5066098;28;20245;-87
2021/08/31 10:48:23;;;;;;;12.93;5.50;;;21.80;58.50;;;;;;5059806;28;20184;-88
2021/08/31 10:51:02;;;;;;;10.00;5.40;;;21.70;58.80;;;;;;5062247;28;20178;-86
2021/08/31 10:53:40;;;;;;;7.80;5.60;;;21.70;58.90;;;;;;5068824;28;20208;-87
2021/08/31 10:56:24;;;;;;;21.25;5.38;;;21.70;58.80;;;;;;5060129;28;20416;-87
2021/08/31 10:59:01;;;;;;;9.82;6.00;;;21.70;59.50;;;;;;5056524;28;20242;-86
2021/08/31 11:01:35;;;;;;;6.72;4.78;;;21.70;58.80;;;;;;5057100;28;20730;-87
2021/08/31 11:04:01;;;;;;;10.53;5.23;;;21.80;55.80;;;;;;5062026;28;20205;-87
2021/08/31 11:06:30;;;;;;;12.80;5.50;;;21.70;56.10;;;;;;5050500;28;20434;-89
2021/08/31 11:09:17;;;;;;;11.20;5.93;;;21.50;56.20;;;;;;5063833;28;20423;-88
2021/08/31 11:11:46;;;;;;;7.50;5.07;;;21.80;56.70;;;;;;5067054;28;20177;-89
2021/08/31 11:14:14;;;;;;;10.13;5.20;;;22.00;56.40;;;;;;5063694;28;20439;-89
2021/08/31 11:16:40;;;;;;;9.87;5.27;;;22.10;56.50;;;;;;5064883;28;20431;-89
2021/08/31 11:19:22;;;;;;;7.43;4.87;;;22.00;54.90;;;;;;5064445;28;20502;-87
2021/08/31 11:21:50;;;;;;;9.83;5.00;;;21.90;54.90;;;;;;5058659;28;20455;-87
2021/08/31 11:24:16;;;;;;;8.32;5.18;;;21.80;54.00;;;;;;5060230;28;20411;-89
2021/08/31 11:26:42;;;;;;;6.63;4.67;;;21.80;54.10;;;;;;5060205;28;20209;-89
2021/08/31 11:29:11;;;;;;;10.90;5.00;;;21.90;54.40;;;;;;5062172;28;20169;-89
2021/08/31 11:31:38;;;;;;;12.00;5.53;;;22.00;54.70;;;;;;5058989;28;20339;-89
2021/08/31 11:34:10;;;;;;;9.20;4.70;;;22.10;55.20;;;;;;5063116;28;20442;-89
2021/08/31 11:36:37;;;;;;;9.83;5.60;;;22.30;55.00;;;;;;5066541;28;20443;-89
2021/08/31 11:39:06;;;;;;;13.27;5.73;;;22.40;54.50;;;;;;5068210;28;20484;-89
2021/08/31 11:41:35;;;;;;;11.80;7.03;;;22.80;54.40;;;;;;5068777;28;20530;-88
2021/08/31 11:44:21;;;;;;;14.23;5.50;;;22.90;54.10;;;;;;5074956;28;20427;-87
2021/08/31 11:46:55;;;;;;;11.57;5.70;;;22.70;53.50;;;;;;5077974;28;20411;-89
2021/08/31 11:49:31;;;;;;;8.90;5.67;;;22.50;52.60;;;;;;5076786;28;20407;-88
2021/08/31 11:52:15;;;;;;;9.80;6.17;;;22.60;52.50;;;;;;5073381;28;20443;-88
2021/08/31 11:54:50;;;;;;;12.83;5.37;;;22.50;52.60;;;;;;5062422;28;20450;-88
2021/08/31 11:57:20;;;;;;;8.83;4.67;;;22.40;51.80;;;;;;5057783;28;20449;-89
2021/08/31 11:59:51;;;;;;;5.10;4.60;;;22.30;51.50;;;;;;5058598;28;20494;-89
2021/08/31 12:02:29;;;;;;;6.87;6.20;;;22.20;52.10;;;;;;5060954;28;20586;-89
2021/08/31 12:04:57;;;;;;;11.63;5.17;;;22.10;52.30;;;;;;5063599;28;20407;-90
2021/08/31 12:07:34;;;;;;;11.87;5.13;;;22.10;52.80;;;;;;5074121;28;20412;-88
2021/08/31 12:10:06;;;;;;;9.10;6.20;;;22.10;53.40;;;;;;5073344;28;20411;-89
2021/08/31 12:12:32;;;;;;;8.93;5.90;;;22.30;53.90;;;;;;5079305;28;20462;-89
2021/08/31 12:14:59;;;;;;;12.83;6.10;;;22.20;54.10;;;;;;5074592;28;20427;-89
2021/08/31 12:17:35;;;;;;;13.40;5.30;;;22.30;54.80;;;;;;5067917;28;20427;-89
2021/08/31 12:20:30;;;;;;;8.87;4.90;;;22.40;54.00;;;;;;5059963;28;20423;-89
2021/08/31 12:23:02;;;;;;;9.30;4.80;;;22.60;53.00;;;;;;5053855;28;20514;-89
2021/08/31 12:25:44;;;;;;;7.20;5.73;;;22.70;52.40;;;;;;5059671;28;20496;-89
2021/08/31 12:28:10;;;;;;;7.50;4.60;;;23.00;53.00;;;;;;5059642;28;20826;-89
2021/08/31 12:30:44;;;;;;;8.00;4.80;;;23.00;52.00;;;;;;5058806;28;20412;-89
2021/08/31 12:33:31;;;;;;;8.47;5.00;;;23.00;52.20;;;;;;5057624;28;20530;-89
2021/08/31 12:36:08;;;;;;;11.53;6.10;;;23.10;52.40;;;;;;5057875;28;20421;-89